Walgett, Australia
Current Conditions -  °F | °C
As of 1:00 PM on Tuesday 25 Nov 2014 (Local Time) from YMOR Reporting Station
Broken Clouds Broken Clouds  
Wind Chill: 84°   Ceiling: 13000
Heat Index: 84°   Visibility: 6mi
Dew Point: 61°   Wind: 17mph
Humidity: 45%   Direction: 210°SSW
Pressure: 29.97"   Gusts: NA
Location:  30.02°S, 148.12°E
Report Text: YMOR 250200Z 21015KT 9999 FEW045 BKN130 29/16 Q1015
Loading
Personal Weather Stations






























Interactive Weather Map New forecast layout! Learn more

10-Day Weather Forecast

Advertisements
Track Severe Weather on mobile